Fairport, NY (14450)

2:38 PM EST on January 31, 2015 (GMT -0500)
Crystal Springs | Change Station
CLOSE
Current Station
Personal Weather Station
Location: Fairport, NY
Elevation: 432 ft
Nearby Weather Stations
Active Advisory: Winter Storm Watch Active Notice: Public Information Statement

Elev 432 ft 43.09 °N, 77.47 °W | Updated 1 second ago

Overcast
Overcast
19.5 °F
Feels Like 20 °F
N
0.4
Wind Variable Wind from SSW
Gusts 3.5 mph

Today
High -- | Low -- °F
--% Chance of Precip.
Yesterday
High -- | Low -- °F
Precip. -- in
7:26 AM 5:20 PM
Waxing Gibbous, 91% visible
Pressure 30.28 in
Visibility 10.0 miles
Clouds Scattered Clouds 2500 ft
Mostly Cloudy 3600 ft
Windchill 20 °F
Dew Point 11 °F
Humidity 70%
Rainfall 0.00 in
Snow Depth Not available.
UV 1 out of 12
Pollen .10 out of 12
Air Quality Not available.
Flu Activity Not available.
METAR KROC 311854Z 28007KT 10SM SCT025 BKN036 M07/M13 A3023 RMK AO2 SLP252 T10671133

More Conditions Fewer Conditions

Pressure 30.28 in
Visibility 10.0 miles
Clouds Scattered Clouds 2500 ft
Mostly Cloudy 3600 ft
Windchill 20 °F
Dew Point 11 °F
Humidity 70%
Rainfall 0.00 in
Snow Depth Not available.
UV 1 out of 12
Pollen .10 out of 12
Air Quality Not available.
Flu Activity Not available.
METAR KROC 311854Z 28007KT 10SM SCT025 BKN036 M07/M13 A3023 RMK AO2 SLP252 T10671133

More Conditions Fewer Conditions

10-Day Weather Forecast

Almanac

Astronomy

Jan. 31, 2015 Rise Set
Actual Time
Civil Twilight
Nautical Twilight
Astronomical Twilight
Moon
Length of Visible Light
Length of Day
Tomorrow will be .
, % of the Moon is Illuminated

Today's Extremes

State Highs State Lows

Community

WunderPhotos

Upload Photos

1,792,155 photos uploaded!

WunderBlogs® & News

Nearby

Air Quality

  Air Quality AQ Index Pollutant
Not available.

Snow Depth

Station Depth Elevation

Earthquake Activity

City Distance Mag. Time & Date
Minimum magnitude displayed is 2.5.

Coastal Water Temperatures

Place Temperature

Nearby Weather Stations